sensor_id;sensor_type;location;lat;lon;timestamp;P1;durP1;ratioP1;P2;durP2;ratioP2
18206;SDS011;9229;52.354;20.886;2023-10-19T00:00:34;61.13;;;24.23;;
18206;SDS011;9229;52.354;20.886;2023-10-19T00:05:39;65.70;;;24.40;;
18206;SDS011;9229;52.354;20.886;2023-10-19T00:10:44;67.63;;;26.23;;
18206;SDS011;9229;52.354;20.886;2023-10-19T00:16:02;59.33;;;23.77;;
18206;SDS011;9229;52.354;20.886;2023-10-19T00:21:11;67.13;;;24.98;;
18206;SDS011;9229;52.354;20.886;2023-10-19T00:26:22;58.97;;;26.17;;
18206;SDS011;9229;52.354;20.886;2023-10-19T00:31:35;61.08;;;25.27;;
18206;SDS011;9229;52.354;20.886;2023-10-19T00:36:41;61.50;;;24.70;;
18206;SDS011;9229;52.354;20.886;2023-10-19T00:41:44;67.07;;;25.75;;
18206;SDS011;9229;52.354;20.886;2023-10-19T00:46:48;149.15;;;42.83;;
18206;SDS011;9229;52.354;20.886;2023-10-19T00:52:00;116.18;;;39.38;;
18206;SDS011;9229;52.354;20.886;2023-10-19T00:57:18;83.85;;;32.30;;
18206;SDS011;9229;52.354;20.886;2023-10-19T01:02:24;75.03;;;29.17;;
18206;SDS011;9229;52.354;20.886;2023-10-19T01:07:29;81.55;;;28.23;;
18206;SDS011;9229;52.354;20.886;2023-10-19T01:12:44;70.57;;;28.63;;
18206;SDS011;9229;52.354;20.886;2023-10-19T01:18:00;69.60;;;27.27;;
18206;SDS011;9229;52.354;20.886;2023-10-19T01:23:05;70.45;;;27.67;;
18206;SDS011;9229;52.354;20.886;2023-10-19T01:28:24;71.28;;;26.70;;
18206;SDS011;9229;52.354;20.886;2023-10-19T01:33:29;70.40;;;27.98;;
18206;SDS011;9229;52.354;20.886;2023-10-19T01:38:32;71.07;;;25.77;;
18206;SDS011;9229;52.354;20.886;2023-10-19T01:43:34;62.85;;;24.70;;
18206;SDS011;9229;52.354;20.886;2023-10-19T01:48:40;69.45;;;26.95;;
18206;SDS011;9229;52.354;20.886;2023-10-19T01:53:48;65.63;;;26.42;;
18206;SDS011;9229;52.354;20.886;2023-10-19T01:58:51;82.05;;;26.70;;
18206;SDS011;9229;52.354;20.886;2023-10-19T02:03:56;53.70;;;26.67;;
18206;SDS011;9229;52.354;20.886;2023-10-19T02:09:02;63.47;;;24.45;;
18206;SDS011;9229;52.354;20.886;2023-10-19T02:14:18;67.57;;;26.77;;
18206;SDS011;9229;52.354;20.886;2023-10-19T02:19:21;70.50;;;26.88;;
18206;SDS011;9229;52.354;20.886;2023-10-19T02:24:28;57.50;;;24.33;;
18206;SDS011;9229;52.354;20.886;2023-10-19T02:29:30;70.30;;;24.90;;
18206;SDS011;9229;52.354;20.886;2023-10-19T02:34:36;62.30;;;24.85;;
18206;SDS011;9229;52.354;20.886;2023-10-19T02:39:41;64.13;;;23.75;;
18206;SDS011;9229;52.354;20.886;2023-10-19T02:44:46;59.17;;;23.73;;
18206;SDS011;9229;52.354;20.886;2023-10-19T02:49:50;51.17;;;24.20;;
18206;SDS011;9229;52.354;20.886;2023-10-19T02:54:57;65.45;;;26.05;;
18206;SDS011;9229;52.354;20.886;2023-10-19T03:00:06;65.72;;;25.90;;
18206;SDS011;9229;52.354;20.886;2023-10-19T03:05:16;61.33;;;24.73;;
18206;SDS011;9229;52.354;20.886;2023-10-19T03:10:23;60.42;;;23.63;;
18206;SDS011;9229;52.354;20.886;2023-10-19T03:15:42;70.75;;;25.05;;
18206;SDS011;9229;52.354;20.886;2023-10-19T03:20:46;59.63;;;24.10;;
18206;SDS011;9229;52.354;20.886;2023-10-19T03:25:56;63.40;;;24.92;;
18206;SDS011;9229;52.354;20.886;2023-10-19T03:31:18;59.33;;;26.08;;
18206;SDS011;9229;52.354;20.886;2023-10-19T03:36:23;56.58;;;23.38;;
18206;SDS011;9229;52.354;20.886;2023-10-19T03:41:41;55.70;;;23.33;;
18206;SDS011;9229;52.354;20.886;2023-10-19T03:46:49;54.70;;;22.83;;
18206;SDS011;9229;52.354;20.886;2023-10-19T03:51:58;56.75;;;23.42;;
18206;SDS011;9229;52.354;20.886;2023-10-19T03:57:02;58.50;;;23.05;;
18206;SDS011;9229;52.354;20.886;2023-10-19T04:02:09;53.83;;;23.20;;
18206;SDS011;9229;52.354;20.886;2023-10-19T04:07:14;53.90;;;23.30;;
18206;SDS011;9229;52.354;20.886;2023-10-19T04:12:23;55.42;;;21.00;;
18206;SDS011;9229;52.354;20.886;2023-10-19T04:17:43;48.03;;;22.33;;
18206;SDS011;9229;52.354;20.886;2023-10-19T04:22:49;60.78;;;22.92;;
18206;SDS011;9229;52.354;20.886;2023-10-19T04:27:55;51.38;;;22.40;;
18206;SDS011;9229;52.354;20.886;2023-10-19T04:32:57;54.45;;;21.73;;
18206;SDS011;9229;52.354;20.886;2023-10-19T04:38:03;55.70;;;21.92;;
18206;SDS011;9229;52.354;20.886;2023-10-19T04:48:24;60.05;;;22.27;;
18206;SDS011;9229;52.354;20.886;2023-10-19T04:53:26;64.55;;;24.08;;
18206;SDS011;9229;52.354;20.886;2023-10-19T04:58:30;49.42;;;21.13;;
18206;SDS011;9229;52.354;20.886;2023-10-19T05:03:33;58.17;;;24.80;;
18206;SDS011;9229;52.354;20.886;2023-10-19T05:08:40;58.20;;;22.60;;
18206;SDS011;9229;52.354;20.886;2023-10-19T05:13:43;55.75;;;23.33;;
18206;SDS011;9229;52.354;20.886;2023-10-19T05:18:46;53.08;;;22.88;;
18206;SDS011;9229;52.354;20.886;2023-10-19T05:23:51;64.00;;;23.70;;
18206;SDS011;9229;52.354;20.886;2023-10-19T05:29:00;56.38;;;23.30;;
18206;SDS011;9229;52.354;20.886;2023-10-19T05:34:05;58.20;;;24.17;;
18206;SDS011;9229;52.354;20.886;2023-10-19T05:39:11;64.53;;;26.33;;
18206;SDS011;9229;52.354;20.886;2023-10-19T05:44:17;64.53;;;26.98;;
18206;SDS011;9229;52.354;20.886;2023-10-19T05:49:19;63.95;;;26.80;;
18206;SDS011;9229;52.354;20.886;2023-10-19T05:54:25;73.40;;;28.27;;
18206;SDS011;9229;52.354;20.886;2023-10-19T05:59:32;67.30;;;29.67;;
18206;SDS011;9229;52.354;20.886;2023-10-19T06:04:34;73.53;;;29.13;;
18206;SDS011;9229;52.354;20.886;2023-10-19T06:09:39;68.63;;;27.77;;
18206;SDS011;9229;52.354;20.886;2023-10-19T06:14:44;71.20;;;29.98;;
18206;SDS011;9229;52.354;20.886;2023-10-19T06:19:52;63.25;;;26.67;;
18206;SDS011;9229;52.354;20.886;2023-10-19T06:24:58;67.85;;;29.50;;
18206;SDS011;9229;52.354;20.886;2023-10-19T06:30:01;56.60;;;25.92;;
18206;SDS011;9229;52.354;20.886;2023-10-19T06:35:03;56.50;;;25.48;;
18206;SDS011;9229;52.354;20.886;2023-10-19T06:40:09;63.30;;;25.58;;
18206;SDS011;9229;52.354;20.886;2023-10-19T06:45:18;62.05;;;25.42;;
18206;SDS011;9229;52.354;20.886;2023-10-19T06:50:23;54.75;;;25.27;;
18206;SDS011;9229;52.354;20.886;2023-10-19T06:55:33;66.40;;;26.52;;
18206;SDS011;9229;52.354;20.886;2023-10-19T07:00:37;53.45;;;24.58;;
18206;SDS011;9229;52.354;20.886;2023-10-19T07:05:42;52.03;;;23.20;;
18206;SDS011;9229;52.354;20.886;2023-10-19T07:10:44;53.72;;;22.80;;
18206;SDS011;9229;52.354;20.886;2023-10-19T07:15:52;55.42;;;25.10;;
18206;SDS011;9229;52.354;20.886;2023-10-19T07:20:55;66.53;;;26.20;;
18206;SDS011;9229;52.354;20.886;2023-10-19T07:26:03;56.38;;;25.33;;
18206;SDS011;9229;52.354;20.886;2023-10-19T07:31:07;56.03;;;25.30;;
18206;SDS011;9229;52.354;20.886;2023-10-19T07:36:13;59.08;;;25.50;;
18206;SDS011;9229;52.354;20.886;2023-10-19T07:41:16;56.42;;;24.60;;
18206;SDS011;9229;52.354;20.886;2023-10-19T07:46:24;44.00;;;22.70;;
18206;SDS011;9229;52.354;20.886;2023-10-19T07:51:29;45.90;;;23.77;;
18206;SDS011;9229;52.354;20.886;2023-10-19T07:56:31;47.55;;;23.05;;
18206;SDS011;9229;52.354;20.886;2023-10-19T08:01:35;55.72;;;24.52;;
18206;SDS011;9229;52.354;20.886;2023-10-19T08:06:37;47.55;;;24.05;;
18206;SDS011;9229;52.354;20.886;2023-10-19T08:11:44;49.38;;;24.13;;
18206;SDS011;9229;52.354;20.886;2023-10-19T08:16:48;53.15;;;24.05;;
18206;SDS011;9229;52.354;20.886;2023-10-19T08:21:50;59.20;;;24.40;;
18206;SDS011;9229;52.354;20.886;2023-10-19T08:26:52;53.78;;;25.13;;
18206;SDS011;9229;52.354;20.886;2023-10-19T08:32:01;47.67;;;23.95;;
18206;SDS011;9229;52.354;20.886;2023-10-19T08:37:03;49.88;;;23.70;;
18206;SDS011;9229;52.354;20.886;2023-10-19T08:42:07;42.30;;;22.27;;
18206;SDS011;9229;52.354;20.886;2023-10-19T08:47:22;39.40;;;20.58;;
18206;SDS011;9229;52.354;20.886;2023-10-19T08:52:25;49.90;;;22.35;;
18206;SDS011;9229;52.354;20.886;2023-10-19T08:57:33;39.35;;;19.63;;
18206;SDS011;9229;52.354;20.886;2023-10-19T09:02:37;40.67;;;19.65;;
18206;SDS011;9229;52.354;20.886;2023-10-19T09:07:40;36.95;;;18.60;;
18206;SDS011;9229;52.354;20.886;2023-10-19T09:12:41;35.70;;;18.05;;
18206;SDS011;9229;52.354;20.886;2023-10-19T09:18:03;27.77;;;15.63;;
18206;SDS011;9229;52.354;20.886;2023-10-19T09:23:15;32.10;;;15.57;;
18206;SDS011;9229;52.354;20.886;2023-10-19T09:28:24;25.42;;;13.75;;
18206;SDS011;9229;52.354;20.886;2023-10-19T09:33:29;22.35;;;13.85;;
18206;SDS011;9229;52.354;20.886;2023-10-19T09:38:36;24.13;;;13.27;;
18206;SDS011;9229;52.354;20.886;2023-10-19T09:43:42;21.60;;;11.98;;
18206;SDS011;9229;52.354;20.886;2023-10-19T09:48:50;27.80;;;13.05;;
18206;SDS011;9229;52.354;20.886;2023-10-19T09:53:56;23.38;;;11.40;;
18206;SDS011;9229;52.354;20.886;2023-10-19T09:59:11;19.52;;;11.77;;
18206;SDS011;9229;52.354;20.886;2023-10-19T10:04:31;20.65;;;10.93;;
18206;SDS011;9229;52.354;20.886;2023-10-19T10:09:40;16.63;;;9.98;;
18206;SDS011;9229;52.354;20.886;2023-10-19T10:25:34;14.00;;;7.82;;
18206;SDS011;9229;52.354;20.886;2023-10-19T10:30:37;12.05;;;7.22;;
18206;SDS011;9229;52.354;20.886;2023-10-19T10:36:09;12.18;;;7.18;;
18206;SDS011;9229;52.354;20.886;2023-10-19T10:41:11;12.30;;;6.95;;
18206;SDS011;9229;52.354;20.886;2023-10-19T10:46:27;10.63;;;7.15;;
18206;SDS011;9229;52.354;20.886;2023-10-19T10:51:34;14.15;;;7.35;;
18206;SDS011;9229;52.354;20.886;2023-10-19T10:56:40;11.32;;;7.57;;
18206;SDS011;9229;52.354;20.886;2023-10-19T11:01:45;14.43;;;8.00;;
18206;SDS011;9229;52.354;20.886;2023-10-19T11:06:49;10.70;;;7.93;;
18206;SDS011;9229;52.354;20.886;2023-10-19T11:11:52;10.07;;;7.55;;
18206;SDS011;9229;52.354;20.886;2023-10-19T11:17:10;11.90;;;7.78;;
18206;SDS011;9229;52.354;20.886;2023-10-19T11:22:15;12.40;;;8.00;;
18206;SDS011;9229;52.354;20.886;2023-10-19T11:27:21;8.65;;;6.85;;
18206;SDS011;9229;52.354;20.886;2023-10-19T11:32:26;13.15;;;9.38;;
18206;SDS011;9229;52.354;20.886;2023-10-19T11:37:52;16.77;;;7.95;;
18206;SDS011;9229;52.354;20.886;2023-10-19T11:42:55;14.77;;;7.75;;
18206;SDS011;9229;52.354;20.886;2023-10-19T11:48:01;12.45;;;7.68;;
18206;SDS011;9229;52.354;20.886;2023-10-19T11:53:06;9.43;;;7.57;;
18206;SDS011;9229;52.354;20.886;2023-10-19T11:58:11;13.00;;;8.20;;
18206;SDS011;9229;52.354;20.886;2023-10-19T12:03:17;12.73;;;7.63;;
18206;SDS011;9229;52.354;20.886;2023-10-19T12:08:23;12.65;;;7.97;;
18206;SDS011;9229;52.354;20.886;2023-10-19T12:13:32;12.77;;;6.80;;
18206;SDS011;9229;52.354;20.886;2023-10-19T12:18:33;10.98;;;7.82;;
18206;SDS011;9229;52.354;20.886;2023-10-19T12:23:43;9.45;;;8.05;;
18206;SDS011;9229;52.354;20.886;2023-10-19T12:28:55;11.80;;;7.63;;
18206;SDS011;9229;52.354;20.886;2023-10-19T12:33:59;15.82;;;8.40;;
18206;SDS011;9229;52.354;20.886;2023-10-19T12:39:03;11.38;;;7.93;;
18206;SDS011;9229;52.354;20.886;2023-10-19T12:44:07;10.52;;;7.07;;
18206;SDS011;9229;52.354;20.886;2023-10-19T12:49:16;13.65;;;7.55;;
18206;SDS011;9229;52.354;20.886;2023-10-19T12:54:21;9.60;;;8.10;;
18206;SDS011;9229;52.354;20.886;2023-10-19T12:59:25;13.02;;;7.97;;
18206;SDS011;9229;52.354;20.886;2023-10-19T13:04:27;12.02;;;7.35;;
18206;SDS011;9229;52.354;20.886;2023-10-19T13:09:33;13.18;;;7.85;;
18206;SDS011;9229;52.354;20.886;2023-10-19T13:14:36;13.00;;;7.78;;
18206;SDS011;9229;52.354;20.886;2023-10-19T13:19:39;12.45;;;8.13;;
18206;SDS011;9229;52.354;20.886;2023-10-19T13:24:44;10.77;;;7.90;;
18206;SDS011;9229;52.354;20.886;2023-10-19T13:29:49;17.38;;;8.43;;
18206;SDS011;9229;52.354;20.886;2023-10-19T13:34:55;12.05;;;8.02;;
18206;SDS011;9229;52.354;20.886;2023-10-19T13:39:58;18.00;;;8.75;;
18206;SDS011;9229;52.354;20.886;2023-10-19T13:45:09;13.45;;;7.53;;
18206;SDS011;9229;52.354;20.886;2023-10-19T13:50:51;12.93;;;8.50;;
18206;SDS011;9229;52.354;20.886;2023-10-19T13:56:01;12.45;;;7.88;;
18206;SDS011;9229;52.354;20.886;2023-10-19T14:01:08;13.45;;;7.68;;
18206;SDS011;9229;52.354;20.886;2023-10-19T14:06:13;17.75;;;8.95;;
18206;SDS011;9229;52.354;20.886;2023-10-19T14:11:18;13.48;;;8.90;;
18206;SDS011;9229;52.354;20.886;2023-10-19T14:16:22;15.57;;;8.38;;
18206;SDS011;9229;52.354;20.886;2023-10-19T14:21:28;11.02;;;8.25;;
18206;SDS011;9229;52.354;20.886;2023-10-19T14:26:32;16.42;;;8.50;;
18206;SDS011;9229;52.354;20.886;2023-10-19T14:31:35;13.55;;;8.82;;
18206;SDS011;9229;52.354;20.886;2023-10-19T14:36:39;13.57;;;9.07;;
18206;SDS011;9229;52.354;20.886;2023-10-19T14:41:44;12.70;;;8.02;;
18206;SDS011;9229;52.354;20.886;2023-10-19T14:46:51;14.30;;;9.02;;
18206;SDS011;9229;52.354;20.886;2023-10-19T14:51:59;12.95;;;8.05;;
18206;SDS011;9229;52.354;20.886;2023-10-19T14:57:08;13.80;;;8.02;;
18206;SDS011;9229;52.354;20.886;2023-10-19T15:02:15;14.65;;;8.68;;
18206;SDS011;9229;52.354;20.886;2023-10-19T15:07:17;14.32;;;8.77;;
18206;SDS011;9229;52.354;20.886;2023-10-19T15:12:22;15.10;;;9.73;;
18206;SDS011;9229;52.354;20.886;2023-10-19T15:17:25;15.45;;;9.00;;
18206;SDS011;9229;52.354;20.886;2023-10-19T15:22:27;13.25;;;8.55;;
18206;SDS011;9229;52.354;20.886;2023-10-19T15:27:38;17.60;;;9.35;;
18206;SDS011;9229;52.354;20.886;2023-10-19T15:32:51;21.30;;;8.98;;
18206;SDS011;9229;52.354;20.886;2023-10-19T15:37:54;18.88;;;8.25;;
18206;SDS011;9229;52.354;20.886;2023-10-19T15:42:57;11.82;;;8.45;;
18206;SDS011;9229;52.354;20.886;2023-10-19T15:48:00;15.23;;;8.68;;
18206;SDS011;9229;52.354;20.886;2023-10-19T15:53:02;13.70;;;9.25;;
18206;SDS011;9229;52.354;20.886;2023-10-19T15:58:06;14.25;;;8.75;;
18206;SDS011;9229;52.354;20.886;2023-10-19T16:03:10;16.40;;;8.90;;
18206;SDS011;9229;52.354;20.886;2023-10-19T16:08:12;18.60;;;8.98;;
18206;SDS011;9229;52.354;20.886;2023-10-19T16:13:24;19.13;;;9.90;;
18206;SDS011;9229;52.354;20.886;2023-10-19T16:18:26;15.25;;;9.60;;
18206;SDS011;9229;52.354;20.886;2023-10-19T16:23:33;17.45;;;10.00;;
18206;SDS011;9229;52.354;20.886;2023-10-19T16:28:36;13.77;;;9.07;;
18206;SDS011;9229;52.354;20.886;2023-10-19T16:33:38;16.75;;;10.45;;
18206;SDS011;9229;52.354;20.886;2023-10-19T16:38:43;21.13;;;10.48;;
18206;SDS011;9229;52.354;20.886;2023-10-19T16:43:48;14.95;;;9.82;;
18206;SDS011;9229;52.354;20.886;2023-10-19T16:48:53;16.55;;;9.52;;
18206;SDS011;9229;52.354;20.886;2023-10-19T16:54:09;19.02;;;10.20;;
18206;SDS011;9229;52.354;20.886;2023-10-19T16:59:15;16.77;;;9.20;;
18206;SDS011;9229;52.354;20.886;2023-10-19T17:04:17;16.40;;;9.82;;
18206;SDS011;9229;52.354;20.886;2023-10-19T17:09:31;15.93;;;10.07;;
18206;SDS011;9229;52.354;20.886;2023-10-19T17:14:36;17.67;;;9.85;;
18206;SDS011;9229;52.354;20.886;2023-10-19T17:19:39;18.45;;;9.90;;
18206;SDS011;9229;52.354;20.886;2023-10-19T17:24:41;21.15;;;9.73;;
18206;SDS011;9229;52.354;20.886;2023-10-19T17:29:55;20.48;;;11.10;;
18206;SDS011;9229;52.354;20.886;2023-10-19T17:34:58;19.95;;;11.10;;
18206;SDS011;9229;52.354;20.886;2023-10-19T17:40:07;22.60;;;11.35;;
18206;SDS011;9229;52.354;20.886;2023-10-19T17:45:17;24.75;;;12.18;;
18206;SDS011;9229;52.354;20.886;2023-10-19T17:50:19;21.77;;;11.73;;
18206;SDS011;9229;52.354;20.886;2023-10-19T17:55:22;26.33;;;13.32;;
18206;SDS011;9229;52.354;20.886;2023-10-19T18:00:28;25.63;;;12.30;;
18206;SDS011;9229;52.354;20.886;2023-10-19T18:05:30;21.67;;;12.90;;
18206;SDS011;9229;52.354;20.886;2023-10-19T18:10:33;24.50;;;12.57;;
18206;SDS011;9229;52.354;20.886;2023-10-19T18:15:37;19.83;;;11.63;;
18206;SDS011;9229;52.354;20.886;2023-10-19T18:20:45;26.13;;;13.50;;
18206;SDS011;9229;52.354;20.886;2023-10-19T18:25:54;28.45;;;14.63;;
18206;SDS011;9229;52.354;20.886;2023-10-19T18:31:03;30.50;;;14.15;;
18206;SDS011;9229;52.354;20.886;2023-10-19T18:36:05;26.90;;;15.05;;
18206;SDS011;9229;52.354;20.886;2023-10-19T18:41:14;27.02;;;15.13;;
18206;SDS011;9229;52.354;20.886;2023-10-19T18:46:20;30.10;;;15.52;;
18206;SDS011;9229;52.354;20.886;2023-10-19T18:51:24;30.50;;;15.48;;
18206;SDS011;9229;52.354;20.886;2023-10-19T18:56:27;33.40;;;15.52;;
18206;SDS011;9229;52.354;20.886;2023-10-19T19:01:34;30.35;;;16.08;;
18206;SDS011;9229;52.354;20.886;2023-10-19T19:06:41;28.75;;;15.55;;
18206;SDS011;9229;52.354;20.886;2023-10-19T19:11:43;29.83;;;15.95;;
18206;SDS011;9229;52.354;20.886;2023-10-19T19:16:51;29.60;;;15.13;;
18206;SDS011;9229;52.354;20.886;2023-10-19T19:21:57;28.83;;;15.40;;
18206;SDS011;9229;52.354;20.886;2023-10-19T19:26:59;33.80;;;17.13;;
18206;SDS011;9229;52.354;20.886;2023-10-19T19:32:15;26.42;;;15.07;;
18206;SDS011;9229;52.354;20.886;2023-10-19T19:37:28;27.25;;;14.75;;
18206;SDS011;9229;52.354;20.886;2023-10-19T19:42:34;30.85;;;15.63;;
18206;SDS011;9229;52.354;20.886;2023-10-19T19:47:41;24.23;;;14.18;;
18206;SDS011;9229;52.354;20.886;2023-10-19T19:52:44;30.52;;;15.90;;
18206;SDS011;9229;52.354;20.886;2023-10-19T19:57:49;23.45;;;14.85;;
18206;SDS011;9229;52.354;20.886;2023-10-19T20:02:54;25.25;;;14.40;;
18206;SDS011;9229;52.354;20.886;2023-10-19T20:07:56;26.27;;;15.20;;
18206;SDS011;9229;52.354;20.886;2023-10-19T20:12:58;25.92;;;15.27;;
18206;SDS011;9229;52.354;20.886;2023-10-19T20:18:03;37.35;;;15.23;;
18206;SDS011;9229;52.354;20.886;2023-10-19T20:23:08;26.83;;;15.00;;
18206;SDS011;9229;52.354;20.886;2023-10-19T20:28:10;34.28;;;16.75;;
18206;SDS011;9229;52.354;20.886;2023-10-19T20:33:16;28.67;;;15.40;;
18206;SDS011;9229;52.354;20.886;2023-10-19T20:38:27;29.83;;;15.88;;
18206;SDS011;9229;52.354;20.886;2023-10-19T20:43:29;27.73;;;15.68;;
18206;SDS011;9229;52.354;20.886;2023-10-19T20:48:36;27.20;;;15.63;;
18206;SDS011;9229;52.354;20.886;2023-10-19T20:53:47;31.30;;;16.50;;
18206;SDS011;9229;52.354;20.886;2023-10-19T20:58:49;26.70;;;16.23;;
18206;SDS011;9229;52.354;20.886;2023-10-19T21:03:55;33.42;;;16.65;;
18206;SDS011;9229;52.354;20.886;2023-10-19T21:08:56;36.95;;;17.33;;
18206;SDS011;9229;52.354;20.886;2023-10-19T21:14:01;32.92;;;17.60;;
18206;SDS011;9229;52.354;20.886;2023-10-19T21:19:05;34.83;;;17.85;;
18206;SDS011;9229;52.354;20.886;2023-10-19T21:24:11;30.15;;;16.67;;
18206;SDS011;9229;52.354;20.886;2023-10-19T21:53:40;25.10;;;14.38;;
18206;SDS011;9229;52.354;20.886;2023-10-19T22:48:59;21.25;;;12.82;;
18206;SDS011;9229;52.354;20.886;2023-10-19T22:54:01;18.30;;;11.75;;
18206;SDS011;9229;52.354;20.886;2023-10-19T22:59:10;22.08;;;12.50;;
18206;SDS011;9229;52.354;20.886;2023-10-19T23:04:53;20.75;;;12.52;;
18206;SDS011;9229;52.354;20.886;2023-10-19T23:11:26;21.70;;;11.32;;
18206;SDS011;9229;52.354;20.886;2023-10-19T23:17:44;17.45;;;11.15;;
18206;SDS011;9229;52.354;20.886;2023-10-19T23:22:43;18.98;;;10.98;;
18206;SDS011;9229;52.354;20.886;2023-10-19T23:28:16;16.63;;;11.15;;
18206;SDS011;9229;52.354;20.886;2023-10-19T23:33:26;15.77;;;10.82;;
18206;SDS011;9229;52.354;20.886;2023-10-19T23:38:30;19.85;;;11.10;;
18206;SDS011;9229;52.354;20.886;2023-10-19T23:43:33;15.68;;;10.18;;
18206;SDS011;9229;52.354;20.886;2023-10-19T23:48:35;14.07;;;9.80;;
18206;SDS011;9229;52.354;20.886;2023-10-19T23:53:45;16.77;;;11.30;;
18206;SDS011;9229;52.354;20.886;2023-10-19T23:58:48;17.95;;;11.07;;
